TimeCST,TemperatureF,Dew PointF,Humidity,Sea Level PressureIn,VisibilityMPH,Wind Direction,Wind SpeedMPH,Gust SpeedMPH,PrecipitationIn,Events,Conditions,WindDirDegrees,DateUTC
12:15 AM,66.9,61.3,82,30.07,10.0,Calm,Calm,-,N/A,,Mostly Cloudy,0,2012-11-05 06:15:00
12:35 AM,66.7,61.9,84,30.07,10.0,Calm,Calm,-,N/A,,Overcast,0,2012-11-05 06:35:00
12:55 AM,67.5,61.3,81,30.07,10.0,ENE,4.6,-,N/A,,Mostly Cloudy,60,2012-11-05 06:55:00
1:15 AM,66.6,61.2,83,30.07,10.0,NE,3.5,-,N/A,,Scattered Clouds,50,2012-11-05 07:15:00
1:35 AM,65.8,60.8,84,30.06,10.0,ENE,3.5,-,N/A,,Clear,60,2012-11-05 07:35:00
1:55 AM,65.5,60.8,85,30.06,10.0,Calm,Calm,-,N/A,,Clear,0,2012-11-05 07:55:00
2:15 AM,64.6,60.8,88,30.05,10.0,Calm,Calm,-,N/A,,Clear,0,2012-11-05 08:15:00
2:35 AM,64.0,60.3,87,30.05,10.0,Calm,Calm,-,N/A,,Clear,0,2012-11-05 08:35:00
2:55 AM,62.6,59.9,91,30.04,10.0,Calm,Calm,-,N/A,,Clear,0,2012-11-05 08:55:00
3:15 AM,62.1,59.9,93,30.04,10.0,Calm,Calm,-,N/A,,Clear,0,2012-11-05 09:15:00
3:35 AM,62.2,59.4,90,30.03,10.0,Calm,Calm,-,N/A,,Clear,0,2012-11-05 09:35:00
3:55 AM,61.9,59.7,93,30.03,10.0,Calm,Calm,-,N/A,,Clear,0,2012-11-05 09:55:00
4:15 AM,61.3,59.7,94,30.03,10.0,Calm,Calm,-,N/A,,Clear,0,2012-11-05 10:15:00
4:35 AM,61.9,59.7,93,30.03,10.0,Calm,Calm,-,N/A,,Clear,0,2012-11-05 10:35:00
4:55 AM,60.8,59.5,96,30.03,10.0,Calm,Calm,-,N/A,,Clear,0,2012-11-05 10:55:00
5:15 AM,60.3,59.0,96,30.03,10.0,Calm,Calm,-,N/A,,Clear,0,2012-11-05 11:15:00
5:35 AM,60.8,59.4,95,30.03,10.0,Calm,Calm,-,N/A,,Clear,0,2012-11-05 11:35:00
5:55 AM,61.7,60.6,96,30.02,10.0,Calm,Calm,-,N/A,,Clear,0,2012-11-05 11:55:00
6:15 AM,60.4,59.5,97,30.03,10.0,Calm,Calm,-,N/A,,Clear,0,2012-11-05 12:15:00
6:35 AM,61.5,60.6,97,30.04,10.0,Calm,Calm,-,N/A,,Clear,0,2012-11-05 12:35:00
6:55 AM,59.9,59.0,97,30.04,10.0,Calm,Calm,-,N/A,,Clear,0,2012-11-05 12:55:00
7:35 AM,62.8,61.3,95,30.05,10.0,Calm,Calm,-,N/A,,Clear,0,2012-11-05 13:35:00
8:55 AM,72.5,63.3,73,30.07,10.0,SSE,8.1,-,N/A,,Clear,160,2012-11-05 14:55:00
9:15 AM,73.9,63.9,71,30.08,10.0,SSE,5.8,-,N/A,,Clear,160,2012-11-05 15:15:00
9:35 AM,75.7,64.4,68,30.08,10.0,South,4.6,-,N/A,,Clear,170,2012-11-05 15:35:00
10:35 AM,79.0,65.3,63,30.07,10.0,South,3.5,-,N/A,,Clear,190,2012-11-05 16:35:00
10:55 AM,81.0,65.5,59,30.07,10.0,South,3.5,-,N/A,,Clear,170,2012-11-05 16:55:00
11:15 AM,81.9,64.9,56,30.07,10.0,South,3.5,-,N/A,,Clear,180,2012-11-05 17:15:00
11:35 AM,82.9,64.6,54,30.06,10.0,Calm,Calm,-,N/A,,Clear,0,2012-11-05 17:35:00
11:55 AM,83.8,64.2,51,30.04,10.0,West,3.5,-,N/A,,Clear,270,2012-11-05 17:55:00
12:15 PM,84.9,63.1,48,30.03,10.0,Calm,Calm,-,N/A,,Clear,0,2012-11-05 18:15:00
2:35 PM,88.7,60.6,39,29.95,10.0,Calm,Calm,-,N/A,,Clear,0,2012-11-05 20:35:00
2:55 PM,89.6,60.3,37,29.94,10.0,Calm,Calm,-,N/A,,Clear,0,2012-11-05 20:55:00
3:15 PM,88.0,59.4,38,29.94,10.0,West,3.5,-,N/A,,Mostly Cloudy,260,2012-11-05 21:15:00
3:35 PM,88.0,60.6,40,29.94,10.0,NNW,6.9,-,N/A,,Scattered Clouds,340,2012-11-05 21:35:00
4:55 PM,88.2,58.6,37,29.94,10.0,Calm,Calm,-,N/A,,Clear,0,2012-11-05 22:55:00
6:35 PM,79.0,60.8,54,29.97,10.0,Calm,Calm,-,N/A,,Clear,0,2012-11-06 00:35:00
6:55 PM,76.8,60.8,58,29.97,10.0,Calm,Calm,-,N/A,,Clear,0,2012-11-06 00:55:00
7:15 PM,77.4,61.0,57,29.98,10.0,Calm,Calm,-,N/A,,Clear,0,2012-11-06 01:15:00
8:55 PM,72.3,60.8,67,30.00,10.0,Calm,Calm,-,N/A,,Clear,0,2012-11-06 02:55:00
9:15 PM,69.4,60.1,72,30.01,10.0,Calm,Calm,-,N/A,,Clear,0,2012-11-06 03:15:00
9:55 PM,68.9,60.1,73,30.01,10.0,Calm,Calm,-,N/A,,Clear,0,2012-11-06 03:55:00
10:55 PM,72.5,61.7,69,30.00,10.0,SSE,4.6,-,N/A,,Clear,160,2012-11-06 04:55:00